Allendale, New Jersey
Current Conditions -  °F | °C
As of 12:51 PM on Tuesday 21 Oct 2014 (Local Time) from KTEB Reporting Station
Broken Clouds Broken Clouds  
Wind Chill: 66°   Ceiling: 4100
Heat Index: 66°   Visibility: 10mi
Dew Point: 48°   Wind: 0mph
Humidity: 52%   Direction: NA
Pressure: 29.85"   Gusts: NA
Location:  41.03°N, 74.14°W
Report Text: KTEB 211651Z 00000KT 10SM BKN041 BKN085 BKN100 19/09 A2985 RMK AO2 SLP107 T01890089
Loading
Personal Weather Stations






























Interactive Weather Map
Tropical Storm Tracking
New forecast layout! Learn more

10-Day Weather Forecast

Advertisements
Track Severe Weather on mobile